sensor_id;sensor_type;location;lat;lon;timestamp;P1;durP1;ratioP1;P2;durP2;ratioP2
19782;SDS011;10051;40.294;-3.754;2024-01-16T00:00:14;8.43;;;2.17;;
19782;SDS011;10051;40.294;-3.754;2024-01-16T00:02:40;6.35;;;2.05;;
19782;SDS011;10051;40.294;-3.754;2024-01-16T00:05:06;6.25;;;2.25;;
19782;SDS011;10051;40.294;-3.754;2024-01-16T00:07:32;7.43;;;2.13;;
19782;SDS011;10051;40.294;-3.754;2024-01-16T00:09:59;10.07;;;2.20;;
19782;SDS011;10051;40.294;-3.754;2024-01-16T00:12:25;8.20;;;2.53;;
19782;SDS011;10051;40.294;-3.754;2024-01-16T00:14:53;5.82;;;1.98;;
19782;SDS011;10051;40.294;-3.754;2024-01-16T00:17:18;5.00;;;1.95;;
19782;SDS011;10051;40.294;-3.754;2024-01-16T00:19:44;4.32;;;1.83;;
19782;SDS011;10051;40.294;-3.754;2024-01-16T00:22:09;5.15;;;1.80;;
19782;SDS011;10051;40.294;-3.754;2024-01-16T00:24:35;5.47;;;2.10;;
19782;SDS011;10051;40.294;-3.754;2024-01-16T00:27:01;5.63;;;1.60;;
19782;SDS011;10051;40.294;-3.754;2024-01-16T00:29:26;6.57;;;1.90;;
19782;SDS011;10051;40.294;-3.754;2024-01-16T00:31:53;5.85;;;1.85;;
19782;SDS011;10051;40.294;-3.754;2024-01-16T00:34:19;6.93;;;2.03;;
19782;SDS011;10051;40.294;-3.754;2024-01-16T00:36:44;6.88;;;1.92;;
19782;SDS011;10051;40.294;-3.754;2024-01-16T00:39:10;6.25;;;1.63;;
19782;SDS011;10051;40.294;-3.754;2024-01-16T00:41:36;5.38;;;1.70;;
19782;SDS011;10051;40.294;-3.754;2024-01-16T00:44:02;4.47;;;1.92;;
19782;SDS011;10051;40.294;-3.754;2024-01-16T00:46:28;9.02;;;1.85;;
19782;SDS011;10051;40.294;-3.754;2024-01-16T00:48:54;6.97;;;1.50;;
19782;SDS011;10051;40.294;-3.754;2024-01-16T00:51:20;4.57;;;1.80;;
19782;SDS011;10051;40.294;-3.754;2024-01-16T00:53:45;7.35;;;1.77;;
19782;SDS011;10051;40.294;-3.754;2024-01-16T00:56:11;4.75;;;1.50;;
19782;SDS011;10051;40.294;-3.754;2024-01-16T00:58:37;5.20;;;1.33;;
19782;SDS011;10051;40.294;-3.754;2024-01-16T01:01:03;4.65;;;1.20;;
19782;SDS011;10051;40.294;-3.754;2024-01-16T01:03:29;2.85;;;1.23;;
19782;SDS011;10051;40.294;-3.754;2024-01-16T01:05:55;6.30;;;1.30;;
19782;SDS011;10051;40.294;-3.754;2024-01-16T01:08:21;4.78;;;1.30;;
19782;SDS011;10051;40.294;-3.754;2024-01-16T01:10:46;6.25;;;1.50;;
19782;SDS011;10051;40.294;-3.754;2024-01-16T01:13:12;6.47;;;1.50;;
19782;SDS011;10051;40.294;-3.754;2024-01-16T01:15:38;5.43;;;1.45;;
19782;SDS011;10051;40.294;-3.754;2024-01-16T01:18:03;5.57;;;1.50;;
19782;SDS011;10051;40.294;-3.754;2024-01-16T01:20:29;3.55;;;1.40;;
19782;SDS011;10051;40.294;-3.754;2024-01-16T01:22:55;6.65;;;1.30;;
19782;SDS011;10051;40.294;-3.754;2024-01-16T01:25:20;4.50;;;1.35;;
19782;SDS011;10051;40.294;-3.754;2024-01-16T01:27:46;6.05;;;1.35;;
19782;SDS011;10051;40.294;-3.754;2024-01-16T01:30:12;5.68;;;1.60;;
19782;SDS011;10051;40.294;-3.754;2024-01-16T01:32:38;8.73;;;1.60;;
19782;SDS011;10051;40.294;-3.754;2024-01-16T01:35:05;5.85;;;1.55;;
19782;SDS011;10051;40.294;-3.754;2024-01-16T01:37:30;4.30;;;1.60;;
19782;SDS011;10051;40.294;-3.754;2024-01-16T01:39:56;4.53;;;1.63;;
19782;SDS011;10051;40.294;-3.754;2024-01-16T01:42:22;6.22;;;1.70;;
19782;SDS011;10051;40.294;-3.754;2024-01-16T01:44:48;7.47;;;1.48;;
19782;SDS011;10051;40.294;-3.754;2024-01-16T01:47:13;4.15;;;1.40;;
19782;SDS011;10051;40.294;-3.754;2024-01-16T01:49:40;5.15;;;1.23;;
19782;SDS011;10051;40.294;-3.754;2024-01-16T01:52:05;6.13;;;1.33;;
19782;SDS011;10051;40.294;-3.754;2024-01-16T01:54:32;6.55;;;1.40;;
19782;SDS011;10051;40.294;-3.754;2024-01-16T01:57:00;6.30;;;1.50;;
19782;SDS011;10051;40.294;-3.754;2024-01-16T01:59:27;5.43;;;1.40;;
19782;SDS011;10051;40.294;-3.754;2024-01-16T02:01:54;8.95;;;1.70;;
19782;SDS011;10051;40.294;-3.754;2024-01-16T02:04:21;11.05;;;1.45;;
19782;SDS011;10051;40.294;-3.754;2024-01-16T02:06:48;11.30;;;1.95;;
19782;SDS011;10051;40.294;-3.754;2024-01-16T02:09:14;6.57;;;1.60;;
19782;SDS011;10051;40.294;-3.754;2024-01-16T02:11:40;6.20;;;1.77;;
19782;SDS011;10051;40.294;-3.754;2024-01-16T02:14:06;7.82;;;1.70;;
19782;SDS011;10051;40.294;-3.754;2024-01-16T02:16:35;5.65;;;1.70;;
19782;SDS011;10051;40.294;-3.754;2024-01-16T02:19:06;7.45;;;1.67;;
19782;SDS011;10051;40.294;-3.754;2024-01-16T02:21:39;10.75;;;2.00;;
19782;SDS011;10051;40.294;-3.754;2024-01-16T02:24:08;8.00;;;2.17;;
19782;SDS011;10051;40.294;-3.754;2024-01-16T02:26:36;13.13;;;2.63;;
19782;SDS011;10051;40.294;-3.754;2024-01-16T02:29:02;14.07;;;2.70;;
19782;SDS011;10051;40.294;-3.754;2024-01-16T02:31:32;10.20;;;2.35;;
19782;SDS011;10051;40.294;-3.754;2024-01-16T02:33:58;13.63;;;3.20;;
19782;SDS011;10051;40.294;-3.754;2024-01-16T02:36:25;14.25;;;2.85;;
19782;SDS011;10051;40.294;-3.754;2024-01-16T02:38:51;10.10;;;2.40;;
19782;SDS011;10051;40.294;-3.754;2024-01-16T02:41:17;11.57;;;2.63;;
19782;SDS011;10051;40.294;-3.754;2024-01-16T02:43:43;14.55;;;2.80;;
19782;SDS011;10051;40.294;-3.754;2024-01-16T02:46:09;10.35;;;2.35;;
19782;SDS011;10051;40.294;-3.754;2024-01-16T02:48:35;11.15;;;2.47;;
19782;SDS011;10051;40.294;-3.754;2024-01-16T02:51:04;12.15;;;3.20;;
19782;SDS011;10051;40.294;-3.754;2024-01-16T02:53:32;14.27;;;2.47;;
19782;SDS011;10051;40.294;-3.754;2024-01-16T02:55:58;14.68;;;2.30;;
19782;SDS011;10051;40.294;-3.754;2024-01-16T02:58:27;11.82;;;2.58;;
19782;SDS011;10051;40.294;-3.754;2024-01-16T03:00:53;8.80;;;2.20;;
19782;SDS011;10051;40.294;-3.754;2024-01-16T03:03:19;10.85;;;2.20;;
19782;SDS011;10051;40.294;-3.754;2024-01-16T03:05:45;7.75;;;2.47;;
19782;SDS011;10051;40.294;-3.754;2024-01-16T03:08:11;9.77;;;2.38;;
19782;SDS011;10051;40.294;-3.754;2024-01-16T03:10:37;8.55;;;2.15;;
19782;SDS011;10051;40.294;-3.754;2024-01-16T03:13:03;7.70;;;2.15;;
19782;SDS011;10051;40.294;-3.754;2024-01-16T03:15:28;13.13;;;2.17;;
19782;SDS011;10051;40.294;-3.754;2024-01-16T03:17:56;7.50;;;2.20;;
19782;SDS011;10051;40.294;-3.754;2024-01-16T03:20:22;6.93;;;2.00;;
19782;SDS011;10051;40.294;-3.754;2024-01-16T03:22:48;11.55;;;2.20;;
19782;SDS011;10051;40.294;-3.754;2024-01-16T03:25:14;10.05;;;2.33;;
19782;SDS011;10051;40.294;-3.754;2024-01-16T03:27:40;9.95;;;2.03;;
19782;SDS011;10051;40.294;-3.754;2024-01-16T03:30:06;8.88;;;2.55;;
19782;SDS011;10051;40.294;-3.754;2024-01-16T03:32:33;11.90;;;2.28;;
19782;SDS011;10051;40.294;-3.754;2024-01-16T03:34:59;7.75;;;2.20;;
19782;SDS011;10051;40.294;-3.754;2024-01-16T03:37:25;8.35;;;2.50;;
19782;SDS011;10051;40.294;-3.754;2024-01-16T03:39:50;7.35;;;2.33;;
19782;SDS011;10051;40.294;-3.754;2024-01-16T03:42:16;8.68;;;2.30;;
19782;SDS011;10051;40.294;-3.754;2024-01-16T03:44:42;9.18;;;2.47;;
19782;SDS011;10051;40.294;-3.754;2024-01-16T03:47:08;8.50;;;2.20;;
19782;SDS011;10051;40.294;-3.754;2024-01-16T03:49:35;11.65;;;2.35;;
19782;SDS011;10051;40.294;-3.754;2024-01-16T03:52:01;9.02;;;2.33;;
19782;SDS011;10051;40.294;-3.754;2024-01-16T03:54:26;9.38;;;2.55;;
19782;SDS011;10051;40.294;-3.754;2024-01-16T03:56:53;6.75;;;2.28;;
19782;SDS011;10051;40.294;-3.754;2024-01-16T03:59:19;14.57;;;2.80;;
19782;SDS011;10051;40.294;-3.754;2024-01-16T04:01:44;7.88;;;2.38;;
19782;SDS011;10051;40.294;-3.754;2024-01-16T04:04:10;7.25;;;2.30;;
19782;SDS011;10051;40.294;-3.754;2024-01-16T04:06:37;7.15;;;2.30;;
19782;SDS011;10051;40.294;-3.754;2024-01-16T04:09:03;7.75;;;2.40;;
19782;SDS011;10051;40.294;-3.754;2024-01-16T04:11:29;11.50;;;2.70;;
19782;SDS011;10051;40.294;-3.754;2024-01-16T04:13:55;8.95;;;2.40;;
19782;SDS011;10051;40.294;-3.754;2024-01-16T04:16:21;9.57;;;2.30;;
19782;SDS011;10051;40.294;-3.754;2024-01-16T04:18:47;9.65;;;2.38;;
19782;SDS011;10051;40.294;-3.754;2024-01-16T04:21:13;10.20;;;2.60;;
19782;SDS011;10051;40.294;-3.754;2024-01-16T04:23:39;9.50;;;2.28;;
19782;SDS011;10051;40.294;-3.754;2024-01-16T04:26:06;8.35;;;1.98;;
19782;SDS011;10051;40.294;-3.754;2024-01-16T04:28:32;9.38;;;2.22;;
19782;SDS011;10051;40.294;-3.754;2024-01-16T04:30:58;10.15;;;2.40;;
19782;SDS011;10051;40.294;-3.754;2024-01-16T04:33:24;6.35;;;2.33;;
19782;SDS011;10051;40.294;-3.754;2024-01-16T04:35:50;7.22;;;2.38;;
19782;SDS011;10051;40.294;-3.754;2024-01-16T04:38:15;8.50;;;2.42;;
19782;SDS011;10051;40.294;-3.754;2024-01-16T04:40:41;10.05;;;2.20;;
19782;SDS011;10051;40.294;-3.754;2024-01-16T04:43:07;5.60;;;2.38;;
19782;SDS011;10051;40.294;-3.754;2024-01-16T04:45:32;8.32;;;2.17;;
19782;SDS011;10051;40.294;-3.754;2024-01-16T04:47:58;8.57;;;2.53;;
19782;SDS011;10051;40.294;-3.754;2024-01-16T04:50:24;6.75;;;2.38;;
19782;SDS011;10051;40.294;-3.754;2024-01-16T04:52:56;8.05;;;2.47;;
19782;SDS011;10051;40.294;-3.754;2024-01-16T04:55:22;7.53;;;2.30;;
19782;SDS011;10051;40.294;-3.754;2024-01-16T04:57:48;10.48;;;2.38;;
19782;SDS011;10051;40.294;-3.754;2024-01-16T05:00:13;13.60;;;2.97;;
19782;SDS011;10051;40.294;-3.754;2024-01-16T05:02:39;12.48;;;2.47;;
19782;SDS011;10051;40.294;-3.754;2024-01-16T05:05:05;10.85;;;2.60;;
19782;SDS011;10051;40.294;-3.754;2024-01-16T05:07:31;8.30;;;2.80;;
19782;SDS011;10051;40.294;-3.754;2024-01-16T05:09:56;9.02;;;2.53;;
19782;SDS011;10051;40.294;-3.754;2024-01-16T05:12:23;10.40;;;2.70;;
19782;SDS011;10051;40.294;-3.754;2024-01-16T05:14:49;9.00;;;2.38;;
19782;SDS011;10051;40.294;-3.754;2024-01-16T05:17:14;5.72;;;2.22;;
19782;SDS011;10051;40.294;-3.754;2024-01-16T05:19:40;9.95;;;2.40;;
19782;SDS011;10051;40.294;-3.754;2024-01-16T05:22:05;6.32;;;2.45;;
19782;SDS011;10051;40.294;-3.754;2024-01-16T05:24:31;11.05;;;2.38;;
19782;SDS011;10051;40.294;-3.754;2024-01-16T05:26:59;9.75;;;2.60;;
19782;SDS011;10051;40.294;-3.754;2024-01-16T05:29:24;7.43;;;2.22;;
19782;SDS011;10051;40.294;-3.754;2024-01-16T05:31:50;6.88;;;2.30;;
19782;SDS011;10051;40.294;-3.754;2024-01-16T05:34:15;8.10;;;2.40;;
19782;SDS011;10051;40.294;-3.754;2024-01-16T05:36:41;7.10;;;2.38;;
19782;SDS011;10051;40.294;-3.754;2024-01-16T05:39:07;7.95;;;2.40;;
19782;SDS011;10051;40.294;-3.754;2024-01-16T05:41:33;11.65;;;2.38;;
19782;SDS011;10051;40.294;-3.754;2024-01-16T05:44:00;7.28;;;2.17;;
19782;SDS011;10051;40.294;-3.754;2024-01-16T05:46:28;6.93;;;2.28;;
19782;SDS011;10051;40.294;-3.754;2024-01-16T05:48:56;10.35;;;2.10;;
19782;SDS011;10051;40.294;-3.754;2024-01-16T05:51:22;5.40;;;2.00;;
19782;SDS011;10051;40.294;-3.754;2024-01-16T05:53:47;8.77;;;2.20;;
19782;SDS011;10051;40.294;-3.754;2024-01-16T05:56:13;6.60;;;1.90;;
19782;SDS011;10051;40.294;-3.754;2024-01-16T05:58:39;9.52;;;1.88;;
19782;SDS011;10051;40.294;-3.754;2024-01-16T06:01:05;5.95;;;2.10;;
19782;SDS011;10051;40.294;-3.754;2024-01-16T06:03:31;6.50;;;1.95;;
19782;SDS011;10051;40.294;-3.754;2024-01-16T06:05:56;7.00;;;2.15;;
19782;SDS011;10051;40.294;-3.754;2024-01-16T06:08:23;7.38;;;1.98;;
19782;SDS011;10051;40.294;-3.754;2024-01-16T06:10:49;7.70;;;2.00;;
19782;SDS011;10051;40.294;-3.754;2024-01-16T06:13:14;6.43;;;2.15;;
19782;SDS011;10051;40.294;-3.754;2024-01-16T06:15:40;8.77;;;2.00;;
19782;SDS011;10051;40.294;-3.754;2024-01-16T06:18:05;7.80;;;2.10;;
19782;SDS011;10051;40.294;-3.754;2024-01-16T06:20:31;8.80;;;2.50;;
19782;SDS011;10051;40.294;-3.754;2024-01-16T06:22:58;10.05;;;2.10;;
19782;SDS011;10051;40.294;-3.754;2024-01-16T06:25:23;9.95;;;2.25;;
19782;SDS011;10051;40.294;-3.754;2024-01-16T06:27:49;13.35;;;2.40;;
19782;SDS011;10051;40.294;-3.754;2024-01-16T06:30:14;7.43;;;2.28;;
19782;SDS011;10051;40.294;-3.754;2024-01-16T06:32:40;7.87;;;2.43;;
19782;SDS011;10051;40.294;-3.754;2024-01-16T06:35:06;7.60;;;2.53;;
19782;SDS011;10051;40.294;-3.754;2024-01-16T06:37:32;9.52;;;2.60;;
19782;SDS011;10051;40.294;-3.754;2024-01-16T06:39:58;6.78;;;2.55;;
19782;SDS011;10051;40.294;-3.754;2024-01-16T06:42:24;7.65;;;1.98;;
19782;SDS011;10051;40.294;-3.754;2024-01-16T06:44:49;10.98;;;2.67;;
19782;SDS011;10051;40.294;-3.754;2024-01-16T06:47:15;9.93;;;2.33;;
19782;SDS011;10051;40.294;-3.754;2024-01-16T06:49:40;8.35;;;2.22;;
19782;SDS011;10051;40.294;-3.754;2024-01-16T06:52:07;7.72;;;2.42;;
19782;SDS011;10051;40.294;-3.754;2024-01-16T06:54:34;7.88;;;2.30;;
19782;SDS011;10051;40.294;-3.754;2024-01-16T06:57:00;12.73;;;2.35;;
19782;SDS011;10051;40.294;-3.754;2024-01-16T06:59:25;7.78;;;2.40;;
19782;SDS011;10051;40.294;-3.754;2024-01-16T07:01:51;7.38;;;1.77;;
19782;SDS011;10051;40.294;-3.754;2024-01-16T07:04:16;4.95;;;2.35;;
19782;SDS011;10051;40.294;-3.754;2024-01-16T07:06:42;6.72;;;2.25;;
19782;SDS011;10051;40.294;-3.754;2024-01-16T07:09:09;9.07;;;1.90;;
19782;SDS011;10051;40.294;-3.754;2024-01-16T07:11:38;5.45;;;1.90;;
19782;SDS011;10051;40.294;-3.754;2024-01-16T07:14:08;10.13;;;1.85;;
19782;SDS011;10051;40.294;-3.754;2024-01-16T07:16:34;6.93;;;2.00;;
19782;SDS011;10051;40.294;-3.754;2024-01-16T07:19:01;7.63;;;1.90;;
19782;SDS011;10051;40.294;-3.754;2024-01-16T07:21:27;6.68;;;1.92;;
19782;SDS011;10051;40.294;-3.754;2024-01-16T07:23:53;8.07;;;2.10;;
19782;SDS011;10051;40.294;-3.754;2024-01-16T07:26:19;9.30;;;2.10;;
19782;SDS011;10051;40.294;-3.754;2024-01-16T07:28:45;6.30;;;1.98;;
19782;SDS011;10051;40.294;-3.754;2024-01-16T07:31:13;5.93;;;1.83;;
19782;SDS011;10051;40.294;-3.754;2024-01-16T07:33:39;10.10;;;2.38;;
19782;SDS011;10051;40.294;-3.754;2024-01-16T07:36:05;7.32;;;2.13;;
19782;SDS011;10051;40.294;-3.754;2024-01-16T07:38:32;12.85;;;2.15;;
19782;SDS011;10051;40.294;-3.754;2024-01-16T07:40:57;7.18;;;2.13;;
19782;SDS011;10051;40.294;-3.754;2024-01-16T07:43:23;7.63;;;2.20;;
19782;SDS011;10051;40.294;-3.754;2024-01-16T07:45:49;6.47;;;1.90;;
19782;SDS011;10051;40.294;-3.754;2024-01-16T07:48:15;7.47;;;2.00;;
19782;SDS011;10051;40.294;-3.754;2024-01-16T07:50:40;9.98;;;2.10;;
19782;SDS011;10051;40.294;-3.754;2024-01-16T07:53:06;7.30;;;2.15;;
19782;SDS011;10051;40.294;-3.754;2024-01-16T07:55:32;8.98;;;2.03;;
19782;SDS011;10051;40.294;-3.754;2024-01-16T07:57:57;12.93;;;2.38;;
19782;SDS011;10051;40.294;-3.754;2024-01-16T08:00:23;8.83;;;2.70;;
19782;SDS011;10051;40.294;-3.754;2024-01-16T08:02:48;8.77;;;2.00;;
19782;SDS011;10051;40.294;-3.754;2024-01-16T08:05:14;10.85;;;2.00;;
19782;SDS011;10051;40.294;-3.754;2024-01-16T08:07:42;7.20;;;2.00;;
19782;SDS011;10051;40.294;-3.754;2024-01-16T08:10:08;6.10;;;2.00;;
19782;SDS011;10051;40.294;-3.754;2024-01-16T08:12:35;8.52;;;2.00;;
19782;SDS011;10051;40.294;-3.754;2024-01-16T08:15:02;5.68;;;2.05;;
19782;SDS011;10051;40.294;-3.754;2024-01-16T08:17:28;12.32;;;2.22;;
19782;SDS011;10051;40.294;-3.754;2024-01-16T08:19:54;7.75;;;2.38;;
19782;SDS011;10051;40.294;-3.754;2024-01-16T08:22:20;6.40;;;1.98;;
19782;SDS011;10051;40.294;-3.754;2024-01-16T08:24:45;11.37;;;2.57;;
19782;SDS011;10051;40.294;-3.754;2024-01-16T08:27:11;11.27;;;2.55;;
19782;SDS011;10051;40.294;-3.754;2024-01-16T08:29:37;8.67;;;2.20;;
19782;SDS011;10051;40.294;-3.754;2024-01-16T08:32:02;17.60;;;2.35;;
19782;SDS011;10051;40.294;-3.754;2024-01-16T08:34:29;47.78;;;4.68;;
19782;SDS011;10051;40.294;-3.754;2024-01-16T08:36:54;10.00;;;2.38;;
19782;SDS011;10051;40.294;-3.754;2024-01-16T08:39:22;30.20;;;3.35;;
19782;SDS011;10051;40.294;-3.754;2024-01-16T08:41:49;18.33;;;2.50;;
19782;SDS011;10051;40.294;-3.754;2024-01-16T08:44:15;25.35;;;2.72;;
19782;SDS011;10051;40.294;-3.754;2024-01-16T08:46:40;12.43;;;2.35;;
19782;SDS011;10051;40.294;-3.754;2024-01-16T08:49:06;6.43;;;2.22;;
19782;SDS011;10051;40.294;-3.754;2024-01-16T08:51:35;8.83;;;2.80;;
19782;SDS011;10051;40.294;-3.754;2024-01-16T08:54:01;6.78;;;2.28;;
19782;SDS011;10051;40.294;-3.754;2024-01-16T08:56:26;11.85;;;2.40;;
19782;SDS011;10051;40.294;-3.754;2024-01-16T08:58:52;18.98;;;3.53;;
19782;SDS011;10051;40.294;-3.754;2024-01-16T09:01:17;8.88;;;2.60;;
19782;SDS011;10051;40.294;-3.754;2024-01-16T09:03:43;6.78;;;2.40;;
19782;SDS011;10051;40.294;-3.754;2024-01-16T09:06:09;7.57;;;2.35;;
19782;SDS011;10051;40.294;-3.754;2024-01-16T09:08:35;9.48;;;2.47;;
19782;SDS011;10051;40.294;-3.754;2024-01-16T09:11:01;9.48;;;2.80;;
19782;SDS011;10051;40.294;-3.754;2024-01-16T09:13:27;8.10;;;2.38;;
19782;SDS011;10051;40.294;-3.754;2024-01-16T09:15:52;11.27;;;2.55;;
19782;SDS011;10051;40.294;-3.754;2024-01-16T09:18:18;9.70;;;2.60;;
19782;SDS011;10051;40.294;-3.754;2024-01-16T09:20:43;9.18;;;2.70;;
19782;SDS011;10051;40.294;-3.754;2024-01-16T09:23:09;12.00;;;3.38;;
19782;SDS011;10051;40.294;-3.754;2024-01-16T09:25:35;13.43;;;2.92;;
19782;SDS011;10051;40.294;-3.754;2024-01-16T09:28:01;8.40;;;3.00;;
19782;SDS011;10051;40.294;-3.754;2024-01-16T09:30:27;11.48;;;3.42;;
19782;SDS011;10051;40.294;-3.754;2024-01-16T09:32:52;12.30;;;3.63;;
19782;SDS011;10051;40.294;-3.754;2024-01-16T09:35:18;13.13;;;3.50;;
19782;SDS011;10051;40.294;-3.754;2024-01-16T09:37:44;12.30;;;3.90;;
19782;SDS011;10051;40.294;-3.754;2024-01-16T09:40:10;10.90;;;3.88;;
19782;SDS011;10051;40.294;-3.754;2024-01-16T09:42:36;9.80;;;3.60;;
19782;SDS011;10051;40.294;-3.754;2024-01-16T09:45:01;13.60;;;4.50;;
19782;SDS011;10051;40.294;-3.754;2024-01-16T09:47:29;14.65;;;3.90;;
19782;SDS011;10051;40.294;-3.754;2024-01-16T09:50:02;12.13;;;4.20;;
19782;SDS011;10051;40.294;-3.754;2024-01-16T09:52:28;12.02;;;3.83;;
19782;SDS011;10051;40.294;-3.754;2024-01-16T09:54:54;10.43;;;4.10;;
19782;SDS011;10051;40.294;-3.754;2024-01-16T09:57:20;14.27;;;4.32;;
19782;SDS011;10051;40.294;-3.754;2024-01-16T09:59:51;13.95;;;4.47;;
19782;SDS011;10051;40.294;-3.754;2024-01-16T10:02:17;11.27;;;4.63;;
19782;SDS011;10051;40.294;-3.754;2024-01-16T10:04:47;12.35;;;4.43;;
19782;SDS011;10051;40.294;-3.754;2024-01-16T10:07:14;10.13;;;4.38;;
19782;SDS011;10051;40.294;-3.754;2024-01-16T10:09:40;13.88;;;4.25;;
19782;SDS011;10051;40.294;-3.754;2024-01-16T10:12:06;11.37;;;4.30;;
19782;SDS011;10051;40.294;-3.754;2024-01-16T10:14:33;12.10;;;4.45;;
19782;SDS011;10051;40.294;-3.754;2024-01-16T10:17:02;16.63;;;4.82;;
19782;SDS011;10051;40.294;-3.754;2024-01-16T10:19:46;13.80;;;5.03;;
19782;SDS011;10051;40.294;-3.754;2024-01-16T10:22:19;17.60;;;5.75;;
19782;SDS011;10051;40.294;-3.754;2024-01-16T10:24:46;14.18;;;5.30;;
19782;SDS011;10051;40.294;-3.754;2024-01-16T10:27:11;14.27;;;5.30;;
19782;SDS011;10051;40.294;-3.754;2024-01-16T10:29:54;11.77;;;5.05;;
19782;SDS011;10051;40.294;-3.754;2024-01-16T10:32:32;12.48;;;5.13;;
19782;SDS011;10051;40.294;-3.754;2024-01-16T10:35:03;12.07;;;4.72;;
19782;SDS011;10051;40.294;-3.754;2024-01-16T10:37:48;9.88;;;4.20;;
19782;SDS011;10051;40.294;-3.754;2024-01-16T10:40:20;10.18;;;4.47;;
19782;SDS011;10051;40.294;-3.754;2024-01-16T10:43:00;9.70;;;4.18;;
19782;SDS011;10051;40.294;-3.754;2024-01-16T10:45:29;15.82;;;4.45;;
19782;SDS011;10051;40.294;-3.754;2024-01-16T10:50:34;17.92;;;4.75;;
19782;SDS011;10051;40.294;-3.754;2024-01-16T10:53:04;8.88;;;4.10;;
19782;SDS011;10051;40.294;-3.754;2024-01-16T10:55:31;9.93;;;4.50;;
19782;SDS011;10051;40.294;-3.754;2024-01-16T10:58:06;13.52;;;4.78;;
19782;SDS011;10051;40.294;-3.754;2024-01-16T11:00:34;14.82;;;4.60;;
19782;SDS011;10051;40.294;-3.754;2024-01-16T11:03:05;17.58;;;5.50;;
19782;SDS011;10051;40.294;-3.754;2024-01-16T11:05:33;14.68;;;4.85;;
19782;SDS011;10051;40.294;-3.754;2024-01-16T11:07:59;16.67;;;4.90;;
19782;SDS011;10051;40.294;-3.754;2024-01-16T11:10:31;10.27;;;4.47;;
19782;SDS011;10051;40.294;-3.754;2024-01-16T11:13:03;13.93;;;5.63;;
19782;SDS011;10051;40.294;-3.754;2024-01-16T11:15:30;16.88;;;5.93;;
19782;SDS011;10051;40.294;-3.754;2024-01-16T11:17:59;24.95;;;7.88;;
19782;SDS011;10051;40.294;-3.754;2024-01-16T11:20:25;27.83;;;7.30;;
19782;SDS011;10051;40.294;-3.754;2024-01-16T11:22:52;26.70;;;8.77;;
19782;SDS011;10051;40.294;-3.754;2024-01-16T11:25:30;21.58;;;8.55;;
19782;SDS011;10051;40.294;-3.754;2024-01-16T11:28:07;25.45;;;8.93;;
19782;SDS011;10051;40.294;-3.754;2024-01-16T11:30:39;23.92;;;9.20;;
19782;SDS011;10051;40.294;-3.754;2024-01-16T11:33:06;31.42;;;9.75;;
19782;SDS011;10051;40.294;-3.754;2024-01-16T11:35:57;32.88;;;9.23;;
19782;SDS011;10051;40.294;-3.754;2024-01-16T11:38:23;21.83;;;8.32;;
19782;SDS011;10051;40.294;-3.754;2024-01-16T11:40:52;21.85;;;7.15;;
19782;SDS011;10051;40.294;-3.754;2024-01-16T11:46:09;19.20;;;6.45;;
19782;SDS011;10051;40.294;-3.754;2024-01-16T11:48:35;15.88;;;5.15;;
19782;SDS011;10051;40.294;-3.754;2024-01-16T11:51:01;16.85;;;6.07;;
19782;SDS011;10051;40.294;-3.754;2024-01-16T11:53:49;12.77;;;4.50;;
19782;SDS011;10051;40.294;-3.754;2024-01-16T12:01:34;9.95;;;4.60;;
19782;SDS011;10051;40.294;-3.754;2024-01-16T12:04:07;7.75;;;3.13;;
19782;SDS011;10051;40.294;-3.754;2024-01-16T12:06:35;7.85;;;3.53;;
19782;SDS011;10051;40.294;-3.754;2024-01-16T12:09:13;10.43;;;3.55;;
19782;SDS011;10051;40.294;-3.754;2024-01-16T12:11:40;9.20;;;3.40;;
19782;SDS011;10051;40.294;-3.754;2024-01-16T12:14:08;10.02;;;3.80;;
19782;SDS011;10051;40.294;-3.754;2024-01-16T12:16:34;9.55;;;4.03;;
19782;SDS011;10051;40.294;-3.754;2024-01-16T12:19:06;7.13;;;3.78;;
19782;SDS011;10051;40.294;-3.754;2024-01-16T12:21:37;9.02;;;3.70;;
19782;SDS011;10051;40.294;-3.754;2024-01-16T12:24:07;11.43;;;3.60;;
19782;SDS011;10051;40.294;-3.754;2024-01-16T12:26:33;7.28;;;3.42;;
19782;SDS011;10051;40.294;-3.754;2024-01-16T12:28:58;7.28;;;3.58;;
19782;SDS011;10051;40.294;-3.754;2024-01-16T12:31:24;6.20;;;3.13;;
19782;SDS011;10051;40.294;-3.754;2024-01-16T12:33:51;6.97;;;3.20;;
19782;SDS011;10051;40.294;-3.754;2024-01-16T12:36:16;10.23;;;3.75;;
19782;SDS011;10051;40.294;-3.754;2024-01-16T12:38:42;8.57;;;3.80;;
19782;SDS011;10051;40.294;-3.754;2024-01-16T12:41:08;7.82;;;3.30;;
19782;SDS011;10051;40.294;-3.754;2024-01-16T12:43:35;5.70;;;2.92;;
19782;SDS011;10051;40.294;-3.754;2024-01-16T12:46:04;11.77;;;3.08;;
19782;SDS011;10051;40.294;-3.754;2024-01-16T12:48:31;7.60;;;2.42;;
19782;SDS011;10051;40.294;-3.754;2024-01-16T12:51:00;6.35;;;2.38;;
19782;SDS011;10051;40.294;-3.754;2024-01-16T12:53:29;6.97;;;2.30;;
19782;SDS011;10051;40.294;-3.754;2024-01-16T12:55:57;5.65;;;2.13;;
19782;SDS011;10051;40.294;-3.754;2024-01-16T12:58:24;7.53;;;2.03;;
19782;SDS011;10051;40.294;-3.754;2024-01-16T13:00:56;5.70;;;2.28;;
19782;SDS011;10051;40.294;-3.754;2024-01-16T13:03:24;7.35;;;2.33;;
19782;SDS011;10051;40.294;-3.754;2024-01-16T13:05:58;5.63;;;2.33;;
19782;SDS011;10051;40.294;-3.754;2024-01-16T13:08:25;6.07;;;2.15;;
19782;SDS011;10051;40.294;-3.754;2024-01-16T13:11:04;7.95;;;2.63;;
19782;SDS011;10051;40.294;-3.754;2024-01-16T13:13:36;8.35;;;2.50;;
19782;SDS011;10051;40.294;-3.754;2024-01-16T13:16:03;7.90;;;2.63;;
19782;SDS011;10051;40.294;-3.754;2024-01-16T13:18:32;7.53;;;2.22;;
19782;SDS011;10051;40.294;-3.754;2024-01-16T13:20:59;9.02;;;2.33;;
19782;SDS011;10051;40.294;-3.754;2024-01-16T13:23:26;11.63;;;2.25;;
19782;SDS011;10051;40.294;-3.754;2024-01-16T13:25:52;8.95;;;2.38;;
19782;SDS011;10051;40.294;-3.754;2024-01-16T13:28:20;7.35;;;2.30;;
19782;SDS011;10051;40.294;-3.754;2024-01-16T13:30:47;10.13;;;2.78;;
19782;SDS011;10051;40.294;-3.754;2024-01-16T13:33:13;9.18;;;2.92;;
19782;SDS011;10051;40.294;-3.754;2024-01-16T13:35:43;10.93;;;2.50;;
19782;SDS011;10051;40.294;-3.754;2024-01-16T13:38:10;12.25;;;2.83;;
19782;SDS011;10051;40.294;-3.754;2024-01-16T13:40:37;11.10;;;2.45;;
19782;SDS011;10051;40.294;-3.754;2024-01-16T13:43:03;8.23;;;2.42;;
19782;SDS011;10051;40.294;-3.754;2024-01-16T13:45:29;7.55;;;2.55;;
19782;SDS011;10051;40.294;-3.754;2024-01-16T13:47:55;9.65;;;2.92;;
19782;SDS011;10051;40.294;-3.754;2024-01-16T13:50:21;8.73;;;2.83;;
19782;SDS011;10051;40.294;-3.754;2024-01-16T13:52:48;11.85;;;2.60;;
19782;SDS011;10051;40.294;-3.754;2024-01-16T13:55:13;7.45;;;2.60;;
19782;SDS011;10051;40.294;-3.754;2024-01-16T13:57:39;15.23;;;3.03;;
19782;SDS011;10051;40.294;-3.754;2024-01-16T14:00:08;10.32;;;2.50;;
19782;SDS011;10051;40.294;-3.754;2024-01-16T14:02:40;11.43;;;2.58;;
19782;SDS011;10051;40.294;-3.754;2024-01-16T14:05:10;11.82;;;2.92;;
19782;SDS011;10051;40.294;-3.754;2024-01-16T14:07:46;10.10;;;2.38;;
19782;SDS011;10051;40.294;-3.754;2024-01-16T14:10:16;13.52;;;2.88;;
19782;SDS011;10051;40.294;-3.754;2024-01-16T14:12:43;14.73;;;2.50;;
19782;SDS011;10051;40.294;-3.754;2024-01-16T14:15:13;13.13;;;2.70;;
19782;SDS011;10051;40.294;-3.754;2024-01-16T14:17:58;11.70;;;2.50;;
19782;SDS011;10051;40.294;-3.754;2024-01-16T14:20:24;13.35;;;2.35;;
19782;SDS011;10051;40.294;-3.754;2024-01-16T14:22:52;14.23;;;3.00;;
19782;SDS011;10051;40.294;-3.754;2024-01-16T14:25:18;10.65;;;2.50;;
19782;SDS011;10051;40.294;-3.754;2024-01-16T14:27:44;10.38;;;2.33;;
19782;SDS011;10051;40.294;-3.754;2024-01-16T14:30:13;11.90;;;2.58;;
19782;SDS011;10051;40.294;-3.754;2024-01-16T14:32:41;10.63;;;2.70;;
19782;SDS011;10051;40.294;-3.754;2024-01-16T14:35:11;12.77;;;3.00;;
19782;SDS011;10051;40.294;-3.754;2024-01-16T14:37:38;23.88;;;2.90;;